sensor_id;sensor_type;location;lat;lon;timestamp;temperature;humidity
17489;DHT22;8861;52.644;4.734;2022-09-09T00:02:18;16.50;99.90
17489;DHT22;8861;52.644;4.734;2022-09-09T00:04:56;16.50;99.90
17489;DHT22;8861;52.644;4.734;2022-09-09T00:07:33;16.50;99.90
17489;DHT22;8861;52.644;4.734;2022-09-09T00:10:13;16.50;99.90
17489;DHT22;8861;52.644;4.734;2022-09-09T00:12:49;16.50;99.90
17489;DHT22;8861;52.644;4.734;2022-09-09T00:15:19;16.40;99.90
17489;DHT22;8861;52.644;4.734;2022-09-09T00:17:52;16.40;99.90
17489;DHT22;8861;52.644;4.734;2022-09-09T00:20:29;16.40;99.90
17489;DHT22;8861;52.644;4.734;2022-09-09T00:23:01;16.40;99.90
17489;DHT22;8861;52.644;4.734;2022-09-09T00:25:34;16.30;99.90
17489;DHT22;8861;52.644;4.734;2022-09-09T00:28:04;16.30;99.90
17489;DHT22;8861;52.644;4.734;2022-09-09T00:30:35;16.30;99.90
17489;DHT22;8861;52.644;4.734;2022-09-09T00:33:10;16.30;99.90
17489;DHT22;8861;52.644;4.734;2022-09-09T00:35:44;16.20;99.90
17489;DHT22;8861;52.644;4.734;2022-09-09T00:38:14;16.20;99.90
17489;DHT22;8861;52.644;4.734;2022-09-09T00:40:48;16.10;99.90
17489;DHT22;8861;52.644;4.734;2022-09-09T00:43:26;16.10;99.90
17489;DHT22;8861;52.644;4.734;2022-09-09T00:48:54;16.10;99.90
17489;DHT22;8861;52.644;4.734;2022-09-09T00:51:30;16.10;99.90
17489;DHT22;8861;52.644;4.734;2022-09-09T00:54:13;16.00;99.90
17489;DHT22;8861;52.644;4.734;2022-09-09T00:56:49;16.10;99.90
17489;DHT22;8861;52.644;4.734;2022-09-09T00:59:26;16.10;99.90
17489;DHT22;8861;52.644;4.734;2022-09-09T01:01:54;16.10;99.90
17489;DHT22;8861;52.644;4.734;2022-09-09T01:04:27;16.10;99.90
17489;DHT22;8861;52.644;4.734;2022-09-09T01:07:02;16.10;99.90
17489;DHT22;8861;52.644;4.734;2022-09-09T01:09:37;16.10;99.90
17489;DHT22;8861;52.644;4.734;2022-09-09T01:12:12;16.10;99.90
17489;DHT22;8861;52.644;4.734;2022-09-09T01:14:44;16.00;99.90
17489;DHT22;8861;52.644;4.734;2022-09-09T01:17:17;16.10;99.90
17489;DHT22;8861;52.644;4.734;2022-09-09T01:19:58;16.00;99.90
17489;DHT22;8861;52.644;4.734;2022-09-09T01:22:35;16.00;99.90
17489;DHT22;8861;52.644;4.734;2022-09-09T01:25:22;16.00;99.90
17489;DHT22;8861;52.644;4.734;2022-09-09T01:27:56;16.00;99.90
17489;DHT22;8861;52.644;4.734;2022-09-09T01:30:25;16.00;99.90
17489;DHT22;8861;52.644;4.734;2022-09-09T01:32:54;16.00;99.90
17489;DHT22;8861;52.644;4.734;2022-09-09T01:35:33;15.90;99.90
17489;DHT22;8861;52.644;4.734;2022-09-09T01:38:01;16.00;99.90
17489;DHT22;8861;52.644;4.734;2022-09-09T01:40:28;15.90;99.90
17489;DHT22;8861;52.644;4.734;2022-09-09T01:42:57;15.90;99.90
17489;DHT22;8861;52.644;4.734;2022-09-09T01:45:24;15.90;99.90
17489;DHT22;8861;52.644;4.734;2022-09-09T01:47:52;15.90;99.90
17489;DHT22;8861;52.644;4.734;2022-09-09T01:50:19;15.80;99.90
17489;DHT22;8861;52.644;4.734;2022-09-09T01:52:50;15.90;99.90
17489;DHT22;8861;52.644;4.734;2022-09-09T01:55:19;15.90;99.90
17489;DHT22;8861;52.644;4.734;2022-09-09T01:57:55;15.80;99.90
17489;DHT22;8861;52.644;4.734;2022-09-09T02:00:24;15.90;99.90
17489;DHT22;8861;52.644;4.734;2022-09-09T02:02:58;15.80;99.90
17489;DHT22;8861;52.644;4.734;2022-09-09T02:05:36;15.80;99.90
17489;DHT22;8861;52.644;4.734;2022-09-09T02:08:06;15.80;99.90
17489;DHT22;8861;52.644;4.734;2022-09-09T02:10:37;15.80;99.90
17489;DHT22;8861;52.644;4.734;2022-09-09T02:13:10;15.80;99.90
17489;DHT22;8861;52.644;4.734;2022-09-09T02:15:44;15.70;99.90
17489;DHT22;8861;52.644;4.734;2022-09-09T02:18:15;15.70;99.90
17489;DHT22;8861;52.644;4.734;2022-09-09T02:20:45;15.70;99.90
17489;DHT22;8861;52.644;4.734;2022-09-09T02:23:13;15.70;99.90
17489;DHT22;8861;52.644;4.734;2022-09-09T02:25:41;15.70;99.90
17489;DHT22;8861;52.644;4.734;2022-09-09T02:28:10;15.70;99.90
17489;DHT22;8861;52.644;4.734;2022-09-09T02:30:41;15.60;99.90
17489;DHT22;8861;52.644;4.734;2022-09-09T02:33:10;15.60;99.90
17489;DHT22;8861;52.644;4.734;2022-09-09T02:35:38;15.60;99.90
17489;DHT22;8861;52.644;4.734;2022-09-09T02:38:08;15.50;99.90
17489;DHT22;8861;52.644;4.734;2022-09-09T02:40:37;15.60;99.90
17489;DHT22;8861;52.644;4.734;2022-09-09T02:43:04;15.50;99.90
17489;DHT22;8861;52.644;4.734;2022-09-09T02:45:38;15.50;99.90
17489;DHT22;8861;52.644;4.734;2022-09-09T02:48:13;15.50;99.90
17489;DHT22;8861;52.644;4.734;2022-09-09T02:50:45;15.50;99.90
17489;DHT22;8861;52.644;4.734;2022-09-09T02:53:18;15.50;99.90
17489;DHT22;8861;52.644;4.734;2022-09-09T02:55:47;15.50;99.90
17489;DHT22;8861;52.644;4.734;2022-09-09T02:58:17;15.50;99.90
17489;DHT22;8861;52.644;4.734;2022-09-09T03:00:46;15.50;99.90
17489;DHT22;8861;52.644;4.734;2022-09-09T03:03:15;15.60;99.90
17489;DHT22;8861;52.644;4.734;2022-09-09T03:05:42;15.60;99.90
17489;DHT22;8861;52.644;4.734;2022-09-09T03:08:09;15.60;99.90
17489;DHT22;8861;52.644;4.734;2022-09-09T03:10:36;15.70;99.90
17489;DHT22;8861;52.644;4.734;2022-09-09T03:13:03;15.60;99.90
17489;DHT22;8861;52.644;4.734;2022-09-09T03:15:31;15.70;99.90
17489;DHT22;8861;52.644;4.734;2022-09-09T03:17:58;15.70;99.90
17489;DHT22;8861;52.644;4.734;2022-09-09T03:20:28;15.80;99.90
17489;DHT22;8861;52.644;4.734;2022-09-09T03:22:56;15.80;99.90
17489;DHT22;8861;52.644;4.734;2022-09-09T03:25:24;15.80;99.90
17489;DHT22;8861;52.644;4.734;2022-09-09T03:27:52;15.90;99.90
17489;DHT22;8861;52.644;4.734;2022-09-09T03:30:20;15.90;99.90
17489;DHT22;8861;52.644;4.734;2022-09-09T03:32:47;15.90;99.90
17489;DHT22;8861;52.644;4.734;2022-09-09T03:35:14;15.90;99.90
17489;DHT22;8861;52.644;4.734;2022-09-09T03:37:43;16.00;99.90
17489;DHT22;8861;52.644;4.734;2022-09-09T03:40:10;16.00;99.90
17489;DHT22;8861;52.644;4.734;2022-09-09T03:42:38;16.00;99.90
17489;DHT22;8861;52.644;4.734;2022-09-09T03:45:06;16.00;99.90
17489;DHT22;8861;52.644;4.734;2022-09-09T03:47:34;15.90;99.90
17489;DHT22;8861;52.644;4.734;2022-09-09T03:50:01;15.90;99.90
17489;DHT22;8861;52.644;4.734;2022-09-09T03:52:29;15.90;99.90
17489;DHT22;8861;52.644;4.734;2022-09-09T03:54:57;16.00;99.90
17489;DHT22;8861;52.644;4.734;2022-09-09T03:57:24;15.90;99.90
17489;DHT22;8861;52.644;4.734;2022-09-09T03:59:51;15.90;99.90
17489;DHT22;8861;52.644;4.734;2022-09-09T04:02:18;15.90;99.90
17489;DHT22;8861;52.644;4.734;2022-09-09T04:04:45;15.90;99.90
17489;DHT22;8861;52.644;4.734;2022-09-09T04:07:12;15.90;99.90
17489;DHT22;8861;52.644;4.734;2022-09-09T04:09:39;15.90;99.90
17489;DHT22;8861;52.644;4.734;2022-09-09T04:12:07;15.90;99.90
17489;DHT22;8861;52.644;4.734;2022-09-09T04:14:36;15.90;99.90
17489;DHT22;8861;52.644;4.734;2022-09-09T04:17:03;15.90;99.90
17489;DHT22;8861;52.644;4.734;2022-09-09T04:19:31;15.80;99.90
17489;DHT22;8861;52.644;4.734;2022-09-09T04:21:58;15.70;99.90
17489;DHT22;8861;52.644;4.734;2022-09-09T04:24:25;15.60;99.90
17489;DHT22;8861;52.644;4.734;2022-09-09T04:26:54;15.60;99.90
17489;DHT22;8861;52.644;4.734;2022-09-09T04:29:23;15.50;99.90
17489;DHT22;8861;52.644;4.734;2022-09-09T04:31:49;15.50;99.90
17489;DHT22;8861;52.644;4.734;2022-09-09T04:34:16;15.40;99.90
17489;DHT22;8861;52.644;4.734;2022-09-09T04:36:43;15.40;99.90
17489;DHT22;8861;52.644;4.734;2022-09-09T04:39:11;15.40;99.90
17489;DHT22;8861;52.644;4.734;2022-09-09T04:41:38;15.30;99.90
17489;DHT22;8861;52.644;4.734;2022-09-09T04:44:04;15.30;99.90
17489;DHT22;8861;52.644;4.734;2022-09-09T04:46:33;15.30;99.90
17489;DHT22;8861;52.644;4.734;2022-09-09T04:49:00;15.20;99.90
17489;DHT22;8861;52.644;4.734;2022-09-09T04:51:27;15.30;99.90
17489;DHT22;8861;52.644;4.734;2022-09-09T04:53:56;15.20;99.90
17489;DHT22;8861;52.644;4.734;2022-09-09T04:56:23;15.20;99.90
17489;DHT22;8861;52.644;4.734;2022-09-09T04:58:52;15.20;99.90
17489;DHT22;8861;52.644;4.734;2022-09-09T05:01:21;15.10;99.90
17489;DHT22;8861;52.644;4.734;2022-09-09T05:03:50;15.10;99.90
17489;DHT22;8861;52.644;4.734;2022-09-09T05:06:20;15.10;99.90
17489;DHT22;8861;52.644;4.734;2022-09-09T05:08:47;15.10;99.90
17489;DHT22;8861;52.644;4.734;2022-09-09T05:11:16;15.00;99.90
17489;DHT22;8861;52.644;4.734;2022-09-09T05:13:44;15.10;99.90
17489;DHT22;8861;52.644;4.734;2022-09-09T05:16:11;15.10;99.90
17489;DHT22;8861;52.644;4.734;2022-09-09T05:18:38;15.10;99.90
17489;DHT22;8861;52.644;4.734;2022-09-09T05:21:07;15.10;99.90
17489;DHT22;8861;52.644;4.734;2022-09-09T05:23:34;15.10;99.90
17489;DHT22;8861;52.644;4.734;2022-09-09T05:26:01;15.10;99.90
17489;DHT22;8861;52.644;4.734;2022-09-09T05:28:28;15.10;99.90
17489;DHT22;8861;52.644;4.734;2022-09-09T05:30:57;15.20;99.90
17489;DHT22;8861;52.644;4.734;2022-09-09T05:33:24;15.20;99.90
17489;DHT22;8861;52.644;4.734;2022-09-09T05:35:58;15.20;99.90
17489;DHT22;8861;52.644;4.734;2022-09-09T05:38:28;15.10;99.90
17489;DHT22;8861;52.644;4.734;2022-09-09T05:40:55;15.20;99.90
17489;DHT22;8861;52.644;4.734;2022-09-09T05:43:23;15.20;99.90
17489;DHT22;8861;52.644;4.734;2022-09-09T05:45:59;15.30;99.90
17489;DHT22;8861;52.644;4.734;2022-09-09T05:48:28;15.30;99.90
17489;DHT22;8861;52.644;4.734;2022-09-09T05:50:56;15.30;99.90
17489;DHT22;8861;52.644;4.734;2022-09-09T05:53:23;15.40;99.90
17489;DHT22;8861;52.644;4.734;2022-09-09T05:55:58;15.40;99.90
17489;DHT22;8861;52.644;4.734;2022-09-09T05:58:25;15.40;99.90
17489;DHT22;8861;52.644;4.734;2022-09-09T06:00:52;15.50;99.90
17489;DHT22;8861;52.644;4.734;2022-09-09T06:03:19;15.50;99.90
17489;DHT22;8861;52.644;4.734;2022-09-09T06:05:57;15.50;99.90
17489;DHT22;8861;52.644;4.734;2022-09-09T06:08:24;15.60;99.90
17489;DHT22;8861;52.644;4.734;2022-09-09T06:10:52;15.60;99.90
17489;DHT22;8861;52.644;4.734;2022-09-09T06:13:19;15.70;99.90
17489;DHT22;8861;52.644;4.734;2022-09-09T06:15:50;15.80;99.90
17489;DHT22;8861;52.644;4.734;2022-09-09T06:18:17;15.90;99.90
17489;DHT22;8861;52.644;4.734;2022-09-09T06:20:53;15.90;99.90
17489;DHT22;8861;52.644;4.734;2022-09-09T06:23:20;16.00;99.90
17489;DHT22;8861;52.644;4.734;2022-09-09T06:25:47;16.00;99.90
17489;DHT22;8861;52.644;4.734;2022-09-09T06:28:16;15.90;99.90
17489;DHT22;8861;52.644;4.734;2022-09-09T06:30:43;16.00;99.90
17489;DHT22;8861;52.644;4.734;2022-09-09T06:33:10;16.10;99.90
17489;DHT22;8861;52.644;4.734;2022-09-09T06:35:37;16.30;99.90
17489;DHT22;8861;52.644;4.734;2022-09-09T06:38:03;16.50;99.90
17489;DHT22;8861;52.644;4.734;2022-09-09T06:40:31;16.60;99.90
17489;DHT22;8861;52.644;4.734;2022-09-09T06:42:59;16.70;99.90
17489;DHT22;8861;52.644;4.734;2022-09-09T06:45:28;16.80;99.90
17489;DHT22;8861;52.644;4.734;2022-09-09T06:47:56;16.80;99.90
17489;DHT22;8861;52.644;4.734;2022-09-09T06:50:23;16.70;99.90
17489;DHT22;8861;52.644;4.734;2022-09-09T06:52:50;16.60;99.90
17489;DHT22;8861;52.644;4.734;2022-09-09T06:55:17;16.50;99.90
17489;DHT22;8861;52.644;4.734;2022-09-09T06:57:44;16.50;99.90
17489;DHT22;8861;52.644;4.734;2022-09-09T07:00:12;16.50;99.90
17489;DHT22;8861;52.644;4.734;2022-09-09T07:02:41;16.50;99.90
17489;DHT22;8861;52.644;4.734;2022-09-09T07:05:08;16.50;99.90
17489;DHT22;8861;52.644;4.734;2022-09-09T07:07:36;16.60;99.90
17489;DHT22;8861;52.644;4.734;2022-09-09T07:10:03;16.80;99.90
17489;DHT22;8861;52.644;4.734;2022-09-09T07:12:30;16.90;99.90
17489;DHT22;8861;52.644;4.734;2022-09-09T07:14:57;17.00;99.90
17489;DHT22;8861;52.644;4.734;2022-09-09T07:17:24;17.00;99.90
17489;DHT22;8861;52.644;4.734;2022-09-09T07:19:52;17.00;99.90
17489;DHT22;8861;52.644;4.734;2022-09-09T07:22:19;17.00;99.90
17489;DHT22;8861;52.644;4.734;2022-09-09T07:24:46;17.10;99.90
17489;DHT22;8861;52.644;4.734;2022-09-09T07:27:15;17.10;99.90
17489;DHT22;8861;52.644;4.734;2022-09-09T07:29:41;17.10;99.90
17489;DHT22;8861;52.644;4.734;2022-09-09T07:32:08;17.10;99.90
17489;DHT22;8861;52.644;4.734;2022-09-09T07:34:35;17.10;99.90
17489;DHT22;8861;52.644;4.734;2022-09-09T07:37:03;17.10;99.90
17489;DHT22;8861;52.644;4.734;2022-09-09T07:39:30;17.20;99.90
17489;DHT22;8861;52.644;4.734;2022-09-09T07:41:57;17.20;99.90
17489;DHT22;8861;52.644;4.734;2022-09-09T07:44:24;17.30;99.90
17489;DHT22;8861;52.644;4.734;2022-09-09T07:46:52;17.40;99.90
17489;DHT22;8861;52.644;4.734;2022-09-09T07:49:19;17.60;99.90
17489;DHT22;8861;52.644;4.734;2022-09-09T07:51:47;17.80;99.90
17489;DHT22;8861;52.644;4.734;2022-09-09T07:54:18;18.00;99.90
17489;DHT22;8861;52.644;4.734;2022-09-09T07:56:46;18.30;99.90
17489;DHT22;8861;52.644;4.734;2022-09-09T07:59:13;18.50;99.90
17489;DHT22;8861;52.644;4.734;2022-09-09T08:01:42;18.60;99.90
17489;DHT22;8861;52.644;4.734;2022-09-09T08:04:12;18.60;99.90
17489;DHT22;8861;52.644;4.734;2022-09-09T08:06:42;18.50;99.90
17489;DHT22;8861;52.644;4.734;2022-09-09T08:09:10;18.40;99.90
17489;DHT22;8861;52.644;4.734;2022-09-09T08:11:39;18.40;99.90
17489;DHT22;8861;52.644;4.734;2022-09-09T08:14:06;18.20;99.90
17489;DHT22;8861;52.644;4.734;2022-09-09T08:16:36;18.20;99.90
17489;DHT22;8861;52.644;4.734;2022-09-09T08:19:04;18.20;99.90
17489;DHT22;8861;52.644;4.734;2022-09-09T08:21:34;18.40;99.90
17489;DHT22;8861;52.644;4.734;2022-09-09T08:24:03;18.60;99.90
17489;DHT22;8861;52.644;4.734;2022-09-09T08:26:33;18.60;99.90
17489;DHT22;8861;52.644;4.734;2022-09-09T08:29:03;18.70;99.90
17489;DHT22;8861;52.644;4.734;2022-09-09T08:31:32;18.80;99.90
17489;DHT22;8861;52.644;4.734;2022-09-09T08:34:01;18.80;99.90
17489;DHT22;8861;52.644;4.734;2022-09-09T08:36:30;18.80;99.90
17489;DHT22;8861;52.644;4.734;2022-09-09T08:38:59;18.90;99.90
17489;DHT22;8861;52.644;4.734;2022-09-09T08:41:53;19.00;99.90
17489;DHT22;8861;52.644;4.734;2022-09-09T08:44:36;19.10;99.90
17489;DHT22;8861;52.644;4.734;2022-09-09T08:47:11;19.20;99.90
17489;DHT22;8861;52.644;4.734;2022-09-09T08:49:51;19.30;99.90
17489;DHT22;8861;52.644;4.734;2022-09-09T08:52:23;19.40;99.90
17489;DHT22;8861;52.644;4.734;2022-09-09T08:54:53;19.40;99.90
17489;DHT22;8861;52.644;4.734;2022-09-09T08:57:25;19.40;99.90
17489;DHT22;8861;52.644;4.734;2022-09-09T08:59:55;19.30;99.90
17489;DHT22;8861;52.644;4.734;2022-09-09T09:02:25;19.20;99.90
17489;DHT22;8861;52.644;4.734;2022-09-09T09:05:02;19.20;99.90
17489;DHT22;8861;52.644;4.734;2022-09-09T09:07:48;19.10;99.90
17489;DHT22;8861;52.644;4.734;2022-09-09T09:10:29;19.10;99.90
17489;DHT22;8861;52.644;4.734;2022-09-09T09:13:00;19.20;99.90
17489;DHT22;8861;52.644;4.734;2022-09-09T09:15:32;19.20;99.90
17489;DHT22;8861;52.644;4.734;2022-09-09T09:18:02;19.30;99.90
17489;DHT22;8861;52.644;4.734;2022-09-09T09:20:35;19.30;99.90
17489;DHT22;8861;52.644;4.734;2022-09-09T09:23:12;19.30;99.90
17489;DHT22;8861;52.644;4.734;2022-09-09T09:25:44;19.40;99.90
17489;DHT22;8861;52.644;4.734;2022-09-09T09:28:15;19.40;99.90
17489;DHT22;8861;52.644;4.734;2022-09-09T09:30:49;19.40;99.90
17489;DHT22;8861;52.644;4.734;2022-09-09T09:33:22;19.50;99.90
17489;DHT22;8861;52.644;4.734;2022-09-09T09:35:51;19.70;99.90
17489;DHT22;8861;52.644;4.734;2022-09-09T09:38:21;19.80;99.90
17489;DHT22;8861;52.644;4.734;2022-09-09T09:40:49;19.80;99.90
17489;DHT22;8861;52.644;4.734;2022-09-09T09:43:20;19.80;99.90
17489;DHT22;8861;52.644;4.734;2022-09-09T09:45:50;19.70;99.90
17489;DHT22;8861;52.644;4.734;2022-09-09T09:48:16;19.70;99.90
17489;DHT22;8861;52.644;4.734;2022-09-09T09:50:48;19.50;99.90
17489;DHT22;8861;52.644;4.734;2022-09-09T09:53:25;19.40;99.90
17489;DHT22;8861;52.644;4.734;2022-09-09T09:55:58;19.30;99.90
17489;DHT22;8861;52.644;4.734;2022-09-09T09:58:26;19.20;99.90
17489;DHT22;8861;52.644;4.734;2022-09-09T10:00:57;19.10;99.90
17489;DHT22;8861;52.644;4.734;2022-09-09T10:03:27;19.30;99.90
17489;DHT22;8861;52.644;4.734;2022-09-09T10:05:54;19.30;99.90
17489;DHT22;8861;52.644;4.734;2022-09-09T10:08:24;19.40;99.90
17489;DHT22;8861;52.644;4.734;2022-09-09T10:11:09;19.40;99.90
17489;DHT22;8861;52.644;4.734;2022-09-09T10:13:48;19.40;99.90
17489;DHT22;8861;52.644;4.734;2022-09-09T10:16:33;19.30;99.90
17489;DHT22;8861;52.644;4.734;2022-09-09T10:19:08;19.30;99.90
17489;DHT22;8861;52.644;4.734;2022-09-09T10:21:57;19.40;99.90
17489;DHT22;8861;52.644;4.734;2022-09-09T10:27:42;19.90;99.90
17489;DHT22;8861;52.644;4.734;2022-09-09T10:30:16;20.20;99.90
17489;DHT22;8861;52.644;4.734;2022-09-09T10:32:51;20.40;99.90
17489;DHT22;8861;52.644;4.734;2022-09-09T10:35:28;20.60;99.90
17489;DHT22;8861;52.644;4.734;2022-09-09T10:38:15;20.70;99.90
17489;DHT22;8861;52.644;4.734;2022-09-09T10:40:57;20.60;99.90
17489;DHT22;8861;52.644;4.734;2022-09-09T10:43:38;20.50;99.90
17489;DHT22;8861;52.644;4.734;2022-09-09T10:46:15;20.30;99.90
17489;DHT22;8861;52.644;4.734;2022-09-09T10:49:01;20.20;99.90
17489;DHT22;8861;52.644;4.734;2022-09-09T10:51:38;20.40;99.90
17489;DHT22;8861;52.644;4.734;2022-09-09T10:54:21;20.70;99.90
17489;DHT22;8861;52.644;4.734;2022-09-09T10:56:55;20.80;99.90
17489;DHT22;8861;52.644;4.734;2022-09-09T10:59:26;20.80;99.90
17489;DHT22;8861;52.644;4.734;2022-09-09T11:01:57;20.60;99.90
17489;DHT22;8861;52.644;4.734;2022-09-09T11:04:31;20.60;99.90
17489;DHT22;8861;52.644;4.734;2022-09-09T11:07:05;20.60;99.90
17489;DHT22;8861;52.644;4.734;2022-09-09T11:09:36;20.50;99.90
17489;DHT22;8861;52.644;4.734;2022-09-09T11:12:05;20.40;99.90
17489;DHT22;8861;52.644;4.734;2022-09-09T11:14:43;20.40;99.90
17489;DHT22;8861;52.644;4.734;2022-09-09T11:17:14;20.60;99.90
17489;DHT22;8861;52.644;4.734;2022-09-09T11:19:44;20.90;99.90
17489;DHT22;8861;52.644;4.734;2022-09-09T11:22:18;21.10;99.90
17489;DHT22;8861;52.644;4.734;2022-09-09T11:24:52;21.20;99.90
17489;DHT22;8861;52.644;4.734;2022-09-09T11:27:22;21.40;99.90
17489;DHT22;8861;52.644;4.734;2022-09-09T11:30:17;21.60;99.90
17489;DHT22;8861;52.644;4.734;2022-09-09T11:33:03;21.60;99.90
17489;DHT22;8861;52.644;4.734;2022-09-09T11:35:44;21.70;99.90
17489;DHT22;8861;52.644;4.734;2022-09-09T11:38:21;21.80;99.90
17489;DHT22;8861;52.644;4.734;2022-09-09T11:40:56;21.80;99.90
17489;DHT22;8861;52.644;4.734;2022-09-09T11:43:28;21.60;99.90
17489;DHT22;8861;52.644;4.734;2022-09-09T11:45:59;21.40;99.90
17489;DHT22;8861;52.644;4.734;2022-09-09T11:48:34;21.20;99.90
17489;DHT22;8861;52.644;4.734;2022-09-09T11:51:05;21.00;99.90
17489;DHT22;8861;52.644;4.734;2022-09-09T11:53:34;20.70;99.90
17489;DHT22;8861;52.644;4.734;2022-09-09T11:56:07;20.60;99.90
17489;DHT22;8861;52.644;4.734;2022-09-09T11:58:55;20.60;99.90
17489;DHT22;8861;52.644;4.734;2022-09-09T12:01:29;20.70;99.90
17489;DHT22;8861;52.644;4.734;2022-09-09T12:06:59;20.00;99.90
17489;DHT22;8861;52.644;4.734;2022-09-09T12:09:35;19.40;99.90
17489;DHT22;8861;52.644;4.734;2022-09-09T12:12:17;18.90;99.90
17489;DHT22;8861;52.644;4.734;2022-09-09T12:14:57;18.50;99.90
17489;DHT22;8861;52.644;4.734;2022-09-09T12:17:26;18.20;99.90
17489;DHT22;8861;52.644;4.734;2022-09-09T12:20:01;18.00;99.90
17489;DHT22;8861;52.644;4.734;2022-09-09T12:22:37;17.90;99.90
17489;DHT22;8861;52.644;4.734;2022-09-09T12:25:16;18.00;99.90
17489;DHT22;8861;52.644;4.734;2022-09-09T12:27:58;18.30;99.90
17489;DHT22;8861;52.644;4.734;2022-09-09T12:30:29;18.80;99.90
17489;DHT22;8861;52.644;4.734;2022-09-09T12:33:06;19.60;99.90
17489;DHT22;8861;52.644;4.734;2022-09-09T12:35:35;19.90;99.90
17489;DHT22;8861;52.644;4.734;2022-09-09T12:38:06;20.00;99.90
17489;DHT22;8861;52.644;4.734;2022-09-09T12:40:37;19.90;99.90
17489;DHT22;8861;52.644;4.734;2022-09-09T12:43:17;19.90;99.90
17489;DHT22;8861;52.644;4.734;2022-09-09T12:45:45;20.00;99.90
17489;DHT22;8861;52.644;4.734;2022-09-09T12:48:17;20.30;99.90
17489;DHT22;8861;52.644;4.734;2022-09-09T12:50:47;20.50;99.90
17489;DHT22;8861;52.644;4.734;2022-09-09T12:53:21;20.50;99.90
17489;DHT22;8861;52.644;4.734;2022-09-09T12:55:51;20.50;99.90
17489;DHT22;8861;52.644;4.734;2022-09-09T12:58:19;20.40;99.90
17489;DHT22;8861;52.644;4.734;2022-09-09T13:00:50;20.50;99.90
17489;DHT22;8861;52.644;4.734;2022-09-09T13:03:18;20.70;99.90
17489;DHT22;8861;52.644;4.734;2022-09-09T13:05:46;20.90;99.90
17489;DHT22;8861;52.644;4.734;2022-09-09T13:08:16;21.10;99.90
17489;DHT22;8861;52.644;4.734;2022-09-09T13:10:48;21.50;99.90
17489;DHT22;8861;52.644;4.734;2022-09-09T13:13:21;21.80;99.90
17489;DHT22;8861;52.644;4.734;2022-09-09T13:15:52;22.00;99.90
17489;DHT22;8861;52.644;4.734;2022-09-09T13:18:21;22.20;99.90
17489;DHT22;8861;52.644;4.734;2022-09-09T13:20:49;22.30;99.90
17489;DHT22;8861;52.644;4.734;2022-09-09T13:23:20;22.00;99.90
17489;DHT22;8861;52.644;4.734;2022-09-09T13:25:55;21.80;99.90
17489;DHT22;8861;52.644;4.734;2022-09-09T13:28:23;21.60;99.90
17489;DHT22;8861;52.644;4.734;2022-09-09T13:30:57;21.70;99.90
17489;DHT22;8861;52.644;4.734;2022-09-09T13:33:34;21.80;99.90
17489;DHT22;8861;52.644;4.734;2022-09-09T13:36:04;21.80;99.90
17489;DHT22;8861;52.644;4.734;2022-09-09T13:38:36;21.70;99.90
17489;DHT22;8861;52.644;4.734;2022-09-09T13:41:05;21.60;99.90
17489;DHT22;8861;52.644;4.734;2022-09-09T13:43:37;21.80;99.90
17489;DHT22;8861;52.644;4.734;2022-09-09T13:46:21;21.70;99.90
17489;DHT22;8861;52.644;4.734;2022-09-09T13:48:54;21.70;99.90
17489;DHT22;8861;52.644;4.734;2022-09-09T13:51:29;21.50;99.90
17489;DHT22;8861;52.644;4.734;2022-09-09T13:53:59;21.40;99.90
17489;DHT22;8861;52.644;4.734;2022-09-09T13:56:26;21.20;99.90
17489;DHT22;8861;52.644;4.734;2022-09-09T13:58:52;21.00;99.90
17489;DHT22;8861;52.644;4.734;2022-09-09T14:01:19;20.80;99.90
17489;DHT22;8861;52.644;4.734;2022-09-09T14:03:46;20.50;99.90
17489;DHT22;8861;52.644;4.734;2022-09-09T14:06:13;20.40;99.90
17489;DHT22;8861;52.644;4.734;2022-09-09T14:08:40;20.30;99.90
17489;DHT22;8861;52.644;4.734;2022-09-09T14:11:12;20.20;99.90
17489;DHT22;8861;52.644;4.734;2022-09-09T14:13:39;20.10;99.90
17489;DHT22;8861;52.644;4.734;2022-09-09T14:16:06;20.00;99.90
17489;DHT22;8861;52.644;4.734;2022-09-09T14:18:33;19.80;99.90
17489;DHT22;8861;52.644;4.734;2022-09-09T14:21:00;19.60;99.90
17489;DHT22;8861;52.644;4.734;2022-09-09T14:23:27;19.40;99.90
17489;DHT22;8861;52.644;4.734;2022-09-09T14:25:55;19.20;99.90
17489;DHT22;8861;52.644;4.734;2022-09-09T14:28:23;19.00;99.90
17489;DHT22;8861;52.644;4.734;2022-09-09T14:30:51;18.80;99.90
17489;DHT22;8861;52.644;4.734;2022-09-09T14:33:17;18.60;99.90
17489;DHT22;8861;52.644;4.734;2022-09-09T14:35:44;18.60;99.90
17489;DHT22;8861;52.644;4.734;2022-09-09T14:38:11;18.60;99.90
17489;DHT22;8861;52.644;4.734;2022-09-09T14:40:39;18.60;99.90
17489;DHT22;8861;52.644;4.734;2022-09-09T14:43:06;18.60;99.90
17489;DHT22;8861;52.644;4.734;2022-09-09T14:45:35;18.70;99.90
17489;DHT22;8861;52.644;4.734;2022-09-09T14:48:03;18.80;99.90
17489;DHT22;8861;52.644;4.734;2022-09-09T14:50:30;18.90;99.90
17489;DHT22;8861;52.644;4.734;2022-09-09T14:52:57;19.00;99.90
17489;DHT22;8861;52.644;4.734;2022-09-09T14:55:24;19.00;99.90
17489;DHT22;8861;52.644;4.734;2022-09-09T14:57:54;19.10;99.90
17489;DHT22;8861;52.644;4.734;2022-09-09T15:00:21;19.10;99.90
17489;DHT22;8861;52.644;4.734;2022-09-09T15:02:51;19.10;99.90
17489;DHT22;8861;52.644;4.734;2022-09-09T15:05:18;19.10;99.90
17489;DHT22;8861;52.644;4.734;2022-09-09T15:07:45;19.10;99.90
17489;DHT22;8861;52.644;4.734;2022-09-09T15:10:12;19.10;99.90
17489;DHT22;8861;52.644;4.734;2022-09-09T15:12:39;19.00;99.90
17489;DHT22;8861;52.644;4.734;2022-09-09T15:15:08;18.90;99.90
17489;DHT22;8861;52.644;4.734;2022-09-09T15:17:35;18.80;99.90
17489;DHT22;8861;52.644;4.734;2022-09-09T15:20:04;18.70;99.90
17489;DHT22;8861;52.644;4.734;2022-09-09T15:22:32;18.70;99.90
17489;DHT22;8861;52.644;4.734;2022-09-09T15:24:59;18.60;99.90
17489;DHT22;8861;52.644;4.734;2022-09-09T15:27:26;18.60;99.90
17489;DHT22;8861;52.644;4.734;2022-09-09T15:29:53;18.60;99.90
17489;DHT22;8861;52.644;4.734;2022-09-09T15:32:20;18.50;99.90
17489;DHT22;8861;52.644;4.734;2022-09-09T15:34:46;18.40;99.90
17489;DHT22;8861;52.644;4.734;2022-09-09T15:37:18;18.30;99.90
17489;DHT22;8861;52.644;4.734;2022-09-09T15:39:45;18.20;99.90
17489;DHT22;8861;52.644;4.734;2022-09-09T15:42:12;18.10;99.90
17489;DHT22;8861;52.644;4.734;2022-09-09T15:44:40;18.10;99.90
17489;DHT22;8861;52.644;4.734;2022-09-09T15:47:08;17.90;99.90
17489;DHT22;8861;52.644;4.734;2022-09-09T15:49:37;17.90;99.90
17489;DHT22;8861;52.644;4.734;2022-09-09T15:52:04;17.80;99.90
17489;DHT22;8861;52.644;4.734;2022-09-09T15:54:34;17.70;99.90
17489;DHT22;8861;52.644;4.734;2022-09-09T15:57:03;17.60;99.90
17489;DHT22;8861;52.644;4.734;2022-09-09T15:59:31;17.50;99.90
17489;DHT22;8861;52.644;4.734;2022-09-09T16:01:59;17.40;99.90
17489;DHT22;8861;52.644;4.734;2022-09-09T16:04:27;17.40;99.90
17489;DHT22;8861;52.644;4.734;2022-09-09T16:06:56;17.30;99.90
17489;DHT22;8861;52.644;4.734;2022-09-09T16:09:24;17.20;99.90
17489;DHT22;8861;52.644;4.734;2022-09-09T16:11:54;17.20;99.90
17489;DHT22;8861;52.644;4.734;2022-09-09T16:14:22;17.20;99.90
17489;DHT22;8861;52.644;4.734;2022-09-09T16:16:50;17.20;99.90